Time;durP1;ratioP1;P1;durP2;ratioP2;P2;SDS_P1;SDS_P2;PMS_P1;PMS_P2;Temp;Humidity;BMP_temperature;BMP_pressure;BME280_temperature;BME280_humidity;BME280_pressure;Samples;Min_cycle;Max_cycle;Signal;HPM_P1;HPM_P2
2024/03/22 00:00:38;;;;;;;57.88;36.00;;;;;;;;;;4941218;28;20049;-68
2024/03/22 00:03:05;;;;;;;63.45;37.65;;;;;;;;;;4940283;28;20062;-68
2024/03/22 00:05:31;;;;;;;61.70;36.75;;;;;;;;;;4936692;28;20063;-68
2024/03/22 00:07:57;;;;;;;61.33;36.15;;;;;;;;;;4927342;28;20063;-68
2024/03/22 00:10:24;;;;;;;60.20;36.92;;;;;;;;;;4936978;28;20043;-68
2024/03/22 00:12:50;;;;;;;59.55;35.47;;;;;;;;;;4937504;28;20391;-68
2024/03/22 00:15:16;;;;;;;61.22;37.70;;;;;;;;;;4939026;28;20091;-68
2024/03/22 00:17:44;;;;;;;57.97;36.78;;;;;;;;;;4938755;28;20102;-68
2024/03/22 00:20:10;;;;;;;61.90;37.15;;;;;;;;;;4938320;28;20062;-68
2024/03/22 00:22:36;;;;;;;60.90;36.85;;;;;;;;;;4943128;29;20181;-68
2024/03/22 00:25:03;;;;;;;71.10;39.58;;;;;;;;;;4940333;28;20051;-68
2024/03/22 00:27:29;;;;;;;64.38;37.97;;;;;;;;;;4937049;28;20051;-68
2024/03/22 00:29:55;;;;;;;70.22;37.35;;;;;;;;;;4939514;28;20411;-68
2024/03/22 00:32:21;;;;;;;71.50;40.40;;;;;;;;;;4940106;29;20039;-68
2024/03/22 00:34:47;;;;;;;72.90;40.78;;;;;;;;;;4938877;29;20414;-68
2024/03/22 00:37:14;;;;;;;74.72;41.28;;;;;;;;;;4940197;28;20040;-68
2024/03/22 00:39:40;;;;;;;76.15;41.08;;;;;;;;;;4940971;28;20051;-68
2024/03/22 00:42:06;;;;;;;75.53;40.33;;;;;;;;;;4938029;28;20039;-68
2024/03/22 00:44:32;;;;;;;78.18;40.70;;;;;;;;;;4939314;28;20051;-68
2024/03/22 00:46:59;;;;;;;83.70;42.97;;;;;;;;;;4955337;28;20051;-68
2024/03/22 00:49:25;;;;;;;74.18;40.17;;;;;;;;;;4938755;28;20126;-68
2024/03/22 00:51:51;;;;;;;77.05;40.13;;;;;;;;;;4937424;29;20055;-69
2024/03/22 00:54:17;;;;;;;81.43;41.63;;;;;;;;;;4937369;28;20035;-68
2024/03/22 00:56:43;;;;;;;82.65;41.88;;;;;;;;;;4955325;28;20109;-68
2024/03/22 00:59:10;;;;;;;89.03;44.00;;;;;;;;;;4955451;28;20051;-68
2024/03/22 01:01:36;;;;;;;86.95;45.05;;;;;;;;;;4937607;28;20511;-68
2024/03/22 01:04:02;;;;;;;96.53;46.90;;;;;;;;;;4937642;28;20043;-68
2024/03/22 01:06:29;;;;;;;96.63;44.25;;;;;;;;;;4951346;28;20066;-68
2024/03/22 01:08:56;;;;;;;99.00;45.83;;;;;;;;;;4958088;28;20070;-68
2024/03/22 01:11:22;;;;;;;108.07;48.85;;;;;;;;;;4961448;28;20094;-68
2024/03/22 01:13:48;;;;;;;98.70;47.17;;;;;;;;;;4961276;28;20038;-68
2024/03/22 01:16:14;;;;;;;102.88;47.30;;;;;;;;;;4960643;28;20153;-68
2024/03/22 01:18:40;;;;;;;108.38;49.20;;;;;;;;;;4960351;28;20312;-68
2024/03/22 01:21:07;;;;;;;97.38;47.25;;;;;;;;;;4960031;28;20083;-68
2024/03/22 01:23:33;;;;;;;110.57;49.90;;;;;;;;;;4935255;28;20072;-68
2024/03/22 01:25:59;;;;;;;104.65;48.20;;;;;;;;;;4946602;28;21291;-68
2024/03/22 01:28:25;;;;;;;111.72;47.40;;;;;;;;;;4944653;28;20047;-68
2024/03/22 01:30:51;;;;;;;111.00;49.20;;;;;;;;;;4933832;28;20042;-68
2024/03/22 01:33:18;;;;;;;104.97;47.97;;;;;;;;;;4942153;28;20495;-68
2024/03/22 01:35:44;;;;;;;103.57;47.13;;;;;;;;;;4958347;28;20091;-68
2024/03/22 01:38:10;;;;;;;113.65;50.13;;;;;;;;;;4927644;28;20051;-68
2024/03/22 01:40:36;;;;;;;114.88;50.00;;;;;;;;;;4960654;28;20393;-68
2024/03/22 01:43:03;;;;;;;116.40;50.30;;;;;;;;;;4963839;28;20101;-68
2024/03/22 01:45:32;;;;;;;114.68;51.30;;;;;;;;;;4958826;28;20046;-68
2024/03/22 01:47:59;;;;;;;111.60;48.20;;;;;;;;;;4961132;28;20532;-68
2024/03/22 01:50:26;;;;;;;105.97;46.63;;;;;;;;;;4945703;28;20511;-68
2024/03/22 01:52:52;;;;;;;111.93;48.50;;;;;;;;;;4961446;28;20069;-68
2024/03/22 01:55:18;;;;;;;110.97;48.58;;;;;;;;;;4946479;28;20518;-68
2024/03/22 01:57:45;;;;;;;101.88;46.75;;;;;;;;;;4947092;28;20060;-68
2024/03/22 02:00:11;;;;;;;102.97;48.45;;;;;;;;;;4941139;28;20047;-68
2024/03/22 02:02:37;;;;;;;102.13;45.38;;;;;;;;;;4940382;28;20404;-68
2024/03/22 02:05:24;;;;;;;106.30;48.65;;;;;;;;;;4940005;28;20043;-69
2024/03/22 02:07:50;;;;;;;118.00;47.92;;;;;;;;;;4960843;28;20513;-68
2024/03/22 02:10:17;;;;;;;100.47;45.10;;;;;;;;;;4941731;28;20058;-68
2024/03/22 02:12:43;;;;;;;107.65;46.13;;;;;;;;;;4957964;28;20042;-68
2024/03/22 02:15:09;;;;;;;105.60;46.67;;;;;;;;;;4960189;28;20146;-68
2024/03/22 02:17:36;;;;;;;103.78;46.13;;;;;;;;;;4960719;28;20043;-68
2024/03/22 02:20:04;;;;;;;104.60;46.60;;;;;;;;;;4938544;28;20051;-69
2024/03/22 02:22:30;;;;;;;109.85;48.20;;;;;;;;;;4964204;28;20054;-68
2024/03/22 02:24:56;;;;;;;106.97;44.58;;;;;;;;;;4942587;28;20521;-68
2024/03/22 02:27:23;;;;;;;108.32;45.35;;;;;;;;;;4942781;28;20130;-68
2024/03/22 02:29:49;;;;;;;110.75;46.80;;;;;;;;;;4961121;28;20162;-69
2024/03/22 02:32:15;;;;;;;113.28;46.67;;;;;;;;;;4942833;28;20054;-68
2024/03/22 02:34:41;;;;;;;100.20;44.00;;;;;;;;;;4942051;28;20547;-68
2024/03/22 02:37:08;;;;;;;114.85;45.38;;;;;;;;;;4927875;28;20039;-68
2024/03/22 02:39:34;;;;;;;108.28;46.67;;;;;;;;;;4944153;28;20118;-69
2024/03/22 02:42:00;;;;;;;109.47;47.03;;;;;;;;;;4942670;28;20644;-68
2024/03/22 02:44:26;;;;;;;105.68;46.25;;;;;;;;;;4959501;28;20038;-68
2024/03/22 02:46:52;;;;;;;98.93;43.92;;;;;;;;;;4948583;28;20177;-68
2024/03/22 02:49:18;;;;;;;108.20;46.17;;;;;;;;;;4960080;28;20046;-68
2024/03/22 02:51:45;;;;;;;107.88;44.95;;;;;;;;;;4960344;28;20087;-68
2024/03/22 02:54:11;;;;;;;115.78;47.53;;;;;;;;;;4945186;28;20075;-68
2024/03/22 02:56:37;;;;;;;101.53;44.60;;;;;;;;;;4961343;28;20462;-68
2024/03/22 02:59:03;;;;;;;104.70;46.10;;;;;;;;;;4948810;28;20050;-68
2024/03/22 03:01:30;;;;;;;110.15;46.80;;;;;;;;;;4960768;28;20069;-68
2024/03/22 03:03:56;;;;;;;113.40;45.25;;;;;;;;;;4944997;28;20046;-68
2024/03/22 03:06:22;;;;;;;103.38;44.83;;;;;;;;;;4945001;28;20498;-68
2024/03/22 03:08:48;;;;;;;112.05;46.63;;;;;;;;;;4947494;28;20142;-68
2024/03/22 03:11:15;;;;;;;111.60;44.45;;;;;;;;;;4929337;28;20474;-68
2024/03/22 03:13:41;;;;;;;107.10;45.95;;;;;;;;;;4945395;28;20499;-68
2024/03/22 03:16:07;;;;;;;97.80;42.85;;;;;;;;;;4946925;28;20038;-68
2024/03/22 03:18:34;;;;;;;97.43;45.00;;;;;;;;;;4961580;28;20050;-68
2024/03/22 03:21:00;;;;;;;104.97;44.25;;;;;;;;;;4957635;28;20057;-68
2024/03/22 03:23:26;;;;;;;103.97;43.25;;;;;;;;;;4962578;28;20058;-68
2024/03/22 03:25:52;;;;;;;112.85;44.80;;;;;;;;;;4941401;28;20050;-68
2024/03/22 03:28:19;;;;;;;104.00;42.70;;;;;;;;;;4960270;28;20069;-68
2024/03/22 03:30:45;;;;;;;117.43;43.63;;;;;;;;;;4945408;28;20098;-68
2024/03/22 03:33:11;;;;;;;100.55;45.83;;;;;;;;;;4944983;28;20471;-68
2024/03/22 03:35:37;;;;;;;104.40;42.90;;;;;;;;;;4945680;28;21929;-69
2024/03/22 03:38:03;;;;;;;98.80;42.55;;;;;;;;;;4942100;28;20047;-68
2024/03/22 03:40:30;;;;;;;94.70;42.08;;;;;;;;;;4963546;28;20117;-68
2024/03/22 03:42:56;;;;;;;102.25;42.25;;;;;;;;;;4964486;28;20584;-68
2024/03/22 03:45:22;;;;;;;91.25;40.55;;;;;;;;;;4945924;28;20066;-68
2024/03/22 03:47:48;;;;;;;85.05;40.67;;;;;;;;;;4960939;28;20125;-68
2024/03/22 03:50:14;;;;;;;98.70;42.75;;;;;;;;;;4964170;28;20042;-68
2024/03/22 03:52:40;;;;;;;89.35;39.58;;;;;;;;;;4963450;28;20109;-68
2024/03/22 03:55:07;;;;;;;88.40;39.42;;;;;;;;;;4946626;28;20529;-68
2024/03/22 03:57:33;;;;;;;104.20;41.08;;;;;;;;;;4946010;28;20101;-68
2024/03/22 03:59:59;;;;;;;90.90;38.40;;;;;;;;;;4958492;28;20038;-68
2024/03/22 04:02:25;;;;;;;103.65;42.22;;;;;;;;;;4943321;28;20042;-68
2024/03/22 04:04:53;;;;;;;93.28;37.88;;;;;;;;;;4941114;28;20061;-68
2024/03/22 04:07:20;;;;;;;99.43;39.47;;;;;;;;;;4941681;28;20113;-68
2024/03/22 04:09:46;;;;;;;99.15;38.20;;;;;;;;;;4958776;28;20510;-68
2024/03/22 04:12:13;;;;;;;88.63;39.15;;;;;;;;;;4926455;28;20137;-68
2024/03/22 04:14:39;;;;;;;91.35;37.17;;;;;;;;;;4958416;28;20089;-68
2024/03/22 04:17:05;;;;;;;85.82;38.58;;;;;;;;;;4958369;28;20091;-68
2024/03/22 04:19:31;;;;;;;85.07;36.35;;;;;;;;;;4947902;28;20065;-68
2024/03/22 04:21:58;;;;;;;84.40;36.75;;;;;;;;;;4954383;28;20177;-68
2024/03/22 04:24:24;;;;;;;89.43;38.15;;;;;;;;;;4942399;28;20050;-68
2024/03/22 04:26:50;;;;;;;94.55;38.03;;;;;;;;;;4941742;28;20047;-68
2024/03/22 04:29:16;;;;;;;89.57;37.20;;;;;;;;;;4925590;28;20047;-68
2024/03/22 04:31:42;;;;;;;89.97;38.35;;;;;;;;;;4957599;28;20070;-68
2024/03/22 04:34:10;;;;;;;86.88;38.33;;;;;;;;;;4958242;28;20038;-68
2024/03/22 04:36:36;;;;;;;81.53;36.30;;;;;;;;;;4940449;28;20197;-68
2024/03/22 04:39:03;;;;;;;87.65;35.03;;;;;;;;;;4957528;28;20115;-68
2024/03/22 04:41:29;;;;;;;83.45;36.60;;;;;;;;;;4943515;28;20396;-68
2024/03/22 04:43:55;;;;;;;90.82;35.25;;;;;;;;;;4944901;28;20077;-68
2024/03/22 04:46:22;;;;;;;77.75;34.47;;;;;;;;;;4943531;28;20059;-68
2024/03/22 04:48:48;;;;;;;87.82;37.88;;;;;;;;;;4946091;28;20103;-68
2024/03/22 04:51:15;;;;;;;85.07;35.70;;;;;;;;;;4949130;28;20467;-68
2024/03/22 04:53:41;;;;;;;84.20;33.40;;;;;;;;;;4948168;28;21447;-68
2024/03/22 04:56:07;;;;;;;82.75;35.78;;;;;;;;;;4946731;28;20065;-68
2024/03/22 04:58:33;;;;;;;84.72;34.75;;;;;;;;;;4950074;28;20129;-68
2024/03/22 05:00:59;;;;;;;77.32;34.42;;;;;;;;;;4961813;28;20098;-68
2024/03/22 05:03:26;;;;;;;80.75;33.05;;;;;;;;;;4946065;28;20050;-68
2024/03/22 05:05:52;;;;;;;79.38;33.15;;;;;;;;;;4959759;28;20055;-68
2024/03/22 05:08:18;;;;;;;68.57;30.67;;;;;;;;;;4942213;28;20059;-68
2024/03/22 05:10:44;;;;;;;81.32;32.88;;;;;;;;;;4955890;28;20055;-68
2024/03/22 05:13:10;;;;;;;71.30;29.88;;;;;;;;;;4940187;28;20383;-68
2024/03/22 05:15:37;;;;;;;76.32;30.90;;;;;;;;;;4938781;28;20254;-68
2024/03/22 05:18:03;;;;;;;80.38;29.70;;;;;;;;;;4935413;28;20059;-67
2024/03/22 05:20:29;;;;;;;70.78;28.15;;;;;;;;;;4940476;28;20047;-68
2024/03/22 05:22:55;;;;;;;77.07;29.00;;;;;;;;;;4936438;28;20055;-67
2024/03/22 05:25:21;;;;;;;78.20;29.58;;;;;;;;;;4940389;29;20131;-68
2024/03/22 05:27:48;;;;;;;73.70;27.83;;;;;;;;;;4945395;29;20047;-68
2024/03/22 05:30:14;;;;;;;89.40;29.58;;;;;;;;;;4936994;28;20105;-68
2024/03/22 05:32:41;;;;;;;72.60;26.80;;;;;;;;;;4941811;28;20044;-68
2024/03/22 05:35:07;;;;;;;71.55;26.20;;;;;;;;;;4945072;28;20055;-68
2024/03/22 05:37:34;;;;;;;66.22;27.23;;;;;;;;;;4942520;28;20513;-68
2024/03/22 05:40:01;;;;;;;77.57;27.30;;;;;;;;;;4944686;28;20556;-68
2024/03/22 05:42:28;;;;;;;77.70;26.73;;;;;;;;;;4942217;28;20070;-68
2024/03/22 05:44:55;;;;;;;71.47;27.73;;;;;;;;;;4942009;28;20055;-67
2024/03/22 05:47:21;;;;;;;75.70;25.95;;;;;;;;;;4939603;28;20078;-68
2024/03/22 05:49:48;;;;;;;69.55;25.05;;;;;;;;;;4956722;28;20141;-68
2024/03/22 05:52:14;;;;;;;74.50;23.85;;;;;;;;;;4940943;28;20535;-68
2024/03/22 05:54:40;;;;;;;62.33;24.45;;;;;;;;;;4938733;28;20058;-68
2024/03/22 05:57:06;;;;;;;56.15;23.33;;;;;;;;;;4940989;28;21364;-68
2024/03/22 05:59:32;;;;;;;57.20;22.65;;;;;;;;;;4940665;28;20470;-68
2024/03/22 06:01:59;;;;;;;52.33;22.25;;;;;;;;;;4941008;28;20052;-67
2024/03/22 06:04:25;;;;;;;51.72;21.88;;;;;;;;;;4942297;28;20047;-67
2024/03/22 06:06:51;;;;;;;49.38;21.05;;;;;;;;;;4922642;29;20051;-68
2024/03/22 06:09:24;;;;;;;52.33;21.95;;;;;;;;;;4938149;28;20499;-68
2024/03/22 06:11:51;;;;;;;50.10;23.10;;;;;;;;;;4939638;28;20153;-68
2024/03/22 06:14:18;;;;;;;48.95;20.33;;;;;;;;;;4941850;28;20051;-67
2024/03/22 06:16:44;;;;;;;51.95;19.60;;;;;;;;;;4929706;28;20470;-67
2024/03/22 06:19:10;;;;;;;52.58;20.70;;;;;;;;;;4955888;28;20075;-67
2024/03/22 06:21:36;;;;;;;54.22;21.17;;;;;;;;;;4940825;28;20626;-68
2024/03/22 06:24:03;;;;;;;54.20;21.38;;;;;;;;;;4938195;28;20043;-66
2024/03/22 06:26:29;;;;;;;45.30;20.27;;;;;;;;;;4957720;28;20091;-67
2024/03/22 06:28:55;;;;;;;47.80;19.38;;;;;;;;;;4941691;28;20480;-67
2024/03/22 06:31:22;;;;;;;54.70;21.90;;;;;;;;;;4938636;28;20558;-67
2024/03/22 06:33:48;;;;;;;44.22;19.10;;;;;;;;;;4951243;28;20047;-67
2024/03/22 06:36:14;;;;;;;51.85;20.00;;;;;;;;;;4942967;28;20566;-67
2024/03/22 06:38:40;;;;;;;47.08;20.23;;;;;;;;;;4946715;28;20125;-67
2024/03/22 06:41:07;;;;;;;48.72;20.73;;;;;;;;;;4942153;28;20471;-67
2024/03/22 06:43:33;;;;;;;55.67;22.30;;;;;;;;;;4942724;28;20063;-67
2024/03/22 06:45:59;;;;;;;53.42;21.95;;;;;;;;;;4944046;28;20047;-67
2024/03/22 06:48:25;;;;;;;51.83;21.90;;;;;;;;;;4944864;28;20432;-67
2024/03/22 06:50:51;;;;;;;57.25;22.63;;;;;;;;;;4945918;28;20571;-67
2024/03/22 06:53:17;;;;;;;58.67;22.63;;;;;;;;;;4940502;29;20047;-67
2024/03/22 06:55:44;;;;;;;55.80;21.63;;;;;;;;;;4942573;28;20047;-67
2024/03/22 06:58:10;;;;;;;55.45;22.05;;;;;;;;;;4944997;28;20062;-67
2024/03/22 07:00:36;;;;;;;53.72;22.92;;;;;;;;;;4945085;28;20035;-65
2024/03/22 07:03:03;;;;;;;71.45;24.90;;;;;;;;;;4942578;28;20130;-66
2024/03/22 07:05:30;;;;;;;60.90;24.20;;;;;;;;;;4949130;28;20047;-66
2024/03/22 07:07:57;;;;;;;52.13;22.88;;;;;;;;;;4961117;28;20134;-66
2024/03/22 07:10:27;;;;;;;62.03;25.70;;;;;;;;;;4964021;28;20492;-65
2024/03/22 07:12:55;;;;;;;55.55;24.73;;;;;;;;;;4964378;28;20177;-66
2024/03/22 07:15:22;;;;;;;53.80;23.33;;;;;;;;;;4946597;28;20082;-66
2024/03/22 07:17:48;;;;;;;61.75;23.77;;;;;;;;;;4961556;28;20461;-66
2024/03/22 07:20:15;;;;;;;49.97;24.33;;;;;;;;;;4963581;28;20075;-66
2024/03/22 07:22:41;;;;;;;60.80;23.88;;;;;;;;;;4953262;28;20053;-66
2024/03/22 07:25:09;;;;;;;48.83;22.30;;;;;;;;;;4947266;28;20047;-66
2024/03/22 07:27:35;;;;;;;56.28;24.77;;;;;;;;;;4951143;28;20047;-66
2024/03/22 07:30:01;;;;;;;58.78;24.00;;;;;;;;;;4949114;28;20050;-66
2024/03/22 07:32:28;;;;;;;53.83;22.67;;;;;;;;;;4948151;28;20062;-66
2024/03/22 07:34:54;;;;;;;47.13;21.52;;;;;;;;;;4948620;28;20043;-66
2024/03/22 07:37:20;;;;;;;54.63;24.33;;;;;;;;;;4949767;28;20446;-66
2024/03/22 07:39:47;;;;;;;60.33;23.27;;;;;;;;;;4966343;28;20118;-66
2024/03/22 07:42:13;;;;;;;55.80;22.50;;;;;;;;;;4961267;28;20042;-66
2024/03/22 07:44:39;;;;;;;46.20;20.35;;;;;;;;;;4961273;28;20050;-66
2024/03/22 07:47:05;;;;;;;51.55;21.80;;;;;;;;;;4964596;28;20059;-66
2024/03/22 07:49:33;;;;;;;44.15;20.60;;;;;;;;;;4949722;28;20047;-65
2024/03/22 07:52:00;;;;;;;42.17;20.23;;;;;;;;;;4947576;28;20051;-66
2024/03/22 07:54:26;;;;;;;42.35;19.80;;;;;;;;;;4963869;28;20053;-65
2024/03/22 07:56:52;;;;;;;44.83;21.05;;;;;;;;;;4947921;28;20283;-65
2024/03/22 07:59:18;;;;;;;42.67;19.23;;;;;;;;;;4942312;28;20043;-65
2024/03/22 08:01:45;;;;;;;41.42;18.85;;;;;;;;;;4948555;28;20455;-65
2024/03/22 08:04:11;;;;;;;40.70;17.67;;;;;;;;;;4944587;28;20042;-66
2024/03/22 08:06:37;;;;;;;35.80;17.60;;;;;;;;;;4949394;28;20063;-65
2024/03/22 08:09:03;;;;;;;40.90;17.55;;;;;;;;;;4958190;28;20482;-65
2024/03/22 08:11:30;;;;;;;40.33;18.45;;;;;;;;;;4944374;28;20490;-65
2024/03/22 08:14:01;;;;;;;35.92;16.67;;;;;;;;;;4948188;28;20153;-65
2024/03/22 08:16:28;;;;;;;34.70;16.38;;;;;;;;;;4964555;28;20082;-65
2024/03/22 08:18:54;;;;;;;31.52;16.00;;;;;;;;;;4949294;28;20416;-65
2024/03/22 08:21:20;;;;;;;29.60;16.58;;;;;;;;;;4953117;28;20046;-65
2024/03/22 08:23:46;;;;;;;32.28;15.98;;;;;;;;;;4950256;28;20055;-66
2024/03/22 08:26:13;;;;;;;34.08;17.05;;;;;;;;;;4966410;28;20462;-66
2024/03/22 08:28:39;;;;;;;34.03;15.10;;;;;;;;;;4968046;28;20043;-66
2024/03/22 08:31:05;;;;;;;35.15;15.38;;;;;;;;;;4966653;28;20162;-65
2024/03/22 08:33:32;;;;;;;28.90;14.50;;;;;;;;;;4966826;28;20129;-66
2024/03/22 08:35:58;;;;;;;31.42;14.90;;;;;;;;;;4964110;28;20436;-66
2024/03/22 08:38:25;;;;;;;37.00;15.55;;;;;;;;;;4961282;28;20101;-65
2024/03/22 08:40:51;;;;;;;30.13;15.23;;;;;;;;;;4961584;28;20125;-65
2024/03/22 08:43:17;;;;;;;34.90;16.05;;;;;;;;;;4946912;28;20043;-66
2024/03/22 08:45:43;;;;;;;32.83;15.95;;;;;;;;;;4963954;28;20042;-66
2024/03/22 08:48:10;;;;;;;34.42;15.98;;;;;;;;;;4965629;28;20443;-66
2024/03/22 08:50:36;;;;;;;28.83;15.93;;;;;;;;;;4965689;28;20514;-66
2024/03/22 08:53:04;;;;;;;31.58;15.50;;;;;;;;;;4968305;28;20074;-65
2024/03/22 08:55:30;;;;;;;28.25;15.02;;;;;;;;;;4950280;28;20783;-66
2024/03/22 08:57:57;;;;;;;29.52;14.27;;;;;;;;;;4964664;28;20058;-66
2024/03/22 09:00:23;;;;;;;26.30;14.20;;;;;;;;;;4966448;28;20054;-66
2024/03/22 09:02:49;;;;;;;27.77;13.98;;;;;;;;;;4965357;28;20475;-65
2024/03/22 09:05:15;;;;;;;29.83;14.40;;;;;;;;;;4962644;28;20655;-66
2024/03/22 09:07:42;;;;;;;32.35;14.23;;;;;;;;;;4959662;28;20196;-66
2024/03/22 09:10:08;;;;;;;29.33;12.65;;;;;;;;;;4947681;28;20447;-80
2024/03/22 09:12:35;;;;;;;24.67;13.45;;;;;;;;;;4948216;28;20097;-65
2024/03/22 09:15:01;;;;;;;24.95;11.50;;;;;;;;;;4948077;28;20085;-65
2024/03/22 09:17:29;;;;;;;26.17;11.70;;;;;;;;;;4949095;28;20059;-65
2024/03/22 09:19:55;;;;;;;31.63;13.55;;;;;;;;;;4966339;28;20046;-65
2024/03/22 09:22:22;;;;;;;22.88;11.80;;;;;;;;;;4949943;28;20484;-65
2024/03/22 09:24:48;;;;;;;25.20;12.65;;;;;;;;;;4964555;28;20047;-65
2024/03/22 09:27:14;;;;;;;34.53;13.80;;;;;;;;;;4967094;28;20054;-65
2024/03/22 09:29:40;;;;;;;29.58;13.13;;;;;;;;;;4945311;28;20083;-65
2024/03/22 09:32:06;;;;;;;27.55;12.77;;;;;;;;;;4951692;28;20122;-65
2024/03/22 09:34:33;;;;;;;25.90;13.05;;;;;;;;;;4932712;28;20074;-65
2024/03/22 09:36:59;;;;;;;26.50;11.00;;;;;;;;;;4950211;28;20458;-65
2024/03/22 09:39:26;;;;;;;29.45;11.65;;;;;;;;;;4947019;28;20062;-70
2024/03/22 09:41:53;;;;;;;25.75;11.85;;;;;;;;;;4968082;28;20058;-65
2024/03/22 09:44:19;;;;;;;21.35;11.32;;;;;;;;;;4962458;28;20453;-65
2024/03/22 09:46:48;;;;;;;35.50;12.55;;;;;;;;;;4964414;28;20047;-65
2024/03/22 09:49:14;;;;;;;33.55;12.73;;;;;;;;;;4949026;28;20043;-65
2024/03/22 09:51:42;;;;;;;32.63;13.18;;;;;;;;;;4964176;28;20062;-65
2024/03/22 09:54:09;;;;;;;30.05;12.35;;;;;;;;;;4947380;28;20433;-65
2024/03/22 09:56:36;;;;;;;31.48;12.23;;;;;;;;;;4967782;28;20047;-65
2024/03/22 09:59:03;;;;;;;37.22;12.18;;;;;;;;;;4968034;28;20549;-65
2024/03/22 10:01:30;;;;;;;35.78;12.10;;;;;;;;;;4967356;28;20413;-65
2024/03/22 10:03:56;;;;;;;26.23;12.43;;;;;;;;;;4949996;28;20134;-65
2024/03/22 10:06:22;;;;;;;29.70;11.18;;;;;;;;;;4949699;28;20062;-65
2024/03/22 10:08:48;;;;;;;27.73;10.95;;;;;;;;;;4948597;28;20051;-65
2024/03/22 10:11:14;;;;;;;19.02;8.90;;;;;;;;;;4958400;28;20758;-65
2024/03/22 10:13:41;;;;;;;19.73;8.77;;;;;;;;;;4965623;28;20050;-65
2024/03/22 10:16:07;;;;;;;22.85;8.30;;;;;;;;;;4962526;28;20089;-65
2024/03/22 10:18:34;;;;;;;26.55;9.65;;;;;;;;;;4962949;28;20129;-65
2024/03/22 10:21:01;;;;;;;19.95;9.23;;;;;;;;;;4959153;28;20129;-65
2024/03/22 10:23:27;;;;;;;19.52;8.52;;;;;;;;;;4943866;28;21145;-65
2024/03/22 10:25:53;;;;;;;19.83;8.00;;;;;;;;;;4947091;28;20070;-65
2024/03/22 10:28:19;;;;;;;18.25;7.43;;;;;;;;;;4962773;28;20058;-65
2024/03/22 10:30:47;;;;;;;15.75;7.65;;;;;;;;;;4964072;28;20054;-65
2024/03/22 10:33:14;;;;;;;12.32;6.13;;;;;;;;;;4945596;28;20089;-65
2024/03/22 10:35:40;;;;;;;15.85;5.90;;;;;;;;;;4947382;28;20081;-65
2024/03/22 10:38:07;;;;;;;18.88;6.65;;;;;;;;;;4961075;28;20047;-65
2024/03/22 10:40:35;;;;;;;15.05;6.22;;;;;;;;;;4962804;28;20069;-65
2024/03/22 10:43:02;;;;;;;15.43;6.45;;;;;;;;;;4946208;28;20055;-65
2024/03/22 10:45:30;;;;;;;17.50;6.25;;;;;;;;;;4961465;28;20078;-65
2024/03/22 10:47:56;;;;;;;12.75;6.38;;;;;;;;;;4943305;28;20058;-67
2024/03/22 10:50:23;;;;;;;13.88;5.00;;;;;;;;;;4964734;28;20050;-65
2024/03/22 10:53:00;;;;;;;11.65;4.85;;;;;;;;;;4947558;28;20051;-65
2024/03/22 10:55:30;;;;;;;9.98;4.90;;;;;;;;;;4934631;28;20624;-65
2024/03/22 10:57:57;;;;;;;12.68;4.75;;;;;;;;;;4963794;28;20074;-65
2024/03/22 11:00:28;;;;;;;13.75;5.03;;;;;;;;;;4947316;28;20118;-65
2024/03/22 11:02:54;;;;;;;10.68;4.43;;;;;;;;;;4946621;28;20130;-66
2024/03/22 11:05:20;;;;;;;13.82;4.20;;;;;;;;;;4948148;28;20043;-66
2024/03/22 11:07:46;;;;;;;14.32;5.63;;;;;;;;;;4962517;28;20099;-66
2024/03/22 11:10:13;;;;;;;15.02;5.20;;;;;;;;;;4965895;28;20047;-66
2024/03/22 11:12:40;;;;;;;15.90;5.57;;;;;;;;;;4966846;28;20058;-66
2024/03/22 11:15:06;;;;;;;11.88;5.15;;;;;;;;;;4964155;28;20041;-65
2024/03/22 11:17:32;;;;;;;15.27;5.72;;;;;;;;;;4964815;28;20075;-66
2024/03/22 11:19:59;;;;;;;16.25;5.68;;;;;;;;;;4965940;28;20103;-66
2024/03/22 11:22:26;;;;;;;16.67;6.53;;;;;;;;;;4947761;28;20094;-66
2024/03/22 11:24:53;;;;;;;15.27;5.70;;;;;;;;;;4967641;28;20395;-65
2024/03/22 11:27:20;;;;;;;16.55;5.30;;;;;;;;;;4947556;28;20035;-66
2024/03/22 11:29:46;;;;;;;21.42;5.93;;;;;;;;;;4947664;28;20077;-66
2024/03/22 11:32:13;;;;;;;17.90;6.25;;;;;;;;;;4947797;28;20047;-66
2024/03/22 11:34:41;;;;;;;15.65;6.68;;;;;;;;;;4960953;28;20046;-66
2024/03/22 11:37:10;;;;;;;13.85;5.55;;;;;;;;;;4963091;28;20054;-65
2024/03/22 11:39:37;;;;;;;14.90;6.28;;;;;;;;;;4965069;28;20087;-66
2024/03/22 11:42:05;;;;;;;14.35;5.53;;;;;;;;;;4946429;28;20105;-66
2024/03/22 11:44:32;;;;;;;19.70;5.80;;;;;;;;;;4945330;28;20042;-65
2024/03/22 11:46:58;;;;;;;19.33;6.28;;;;;;;;;;4945709;28;20105;-65
2024/03/22 11:49:24;;;;;;;15.40;5.88;;;;;;;;;;4943102;28;20053;-65
2024/03/22 11:51:52;;;;;;;16.60;5.80;;;;;;;;;;4944825;28;20051;-65
2024/03/22 11:54:20;;;;;;;16.02;5.03;;;;;;;;;;4945260;28;20043;-66
2024/03/22 11:56:47;;;;;;;21.50;5.57;;;;;;;;;;4939573;28;20444;-66
2024/03/22 11:59:13;;;;;;;18.98;4.60;;;;;;;;;;4956571;28;20051;-65
2024/03/22 12:01:41;;;;;;;15.73;4.70;;;;;;;;;;4955940;28;20119;-66
2024/03/22 12:04:07;;;;;;;20.85;5.28;;;;;;;;;;4956789;28;20110;-66
2024/03/22 12:06:35;;;;;;;21.58;6.00;;;;;;;;;;4963977;28;20422;-66
2024/03/22 12:09:03;;;;;;;17.10;5.45;;;;;;;;;;4955243;28;20052;-66
2024/03/22 12:11:29;;;;;;;19.58;4.65;;;;;;;;;;4956329;28;20380;-65
2024/03/22 12:13:55;;;;;;;16.02;4.65;;;;;;;;;;4961822;28;20454;-65
2024/03/22 12:16:22;;;;;;;17.27;4.90;;;;;;;;;;4943053;28;20059;-65
2024/03/22 12:18:48;;;;;;;20.02;6.72;;;;;;;;;;4946490;28;20094;-65
2024/03/22 12:21:14;;;;;;;16.95;4.88;;;;;;;;;;4934314;28;20475;-65
2024/03/22 12:23:40;;;;;;;18.13;4.80;;;;;;;;;;4958187;28;20129;-66
2024/03/22 12:26:06;;;;;;;17.10;5.60;;;;;;;;;;4961900;28;20386;-65
2024/03/22 12:28:33;;;;;;;19.73;4.80;;;;;;;;;;4960384;28;20039;-65
2024/03/22 12:30:59;;;;;;;15.35;5.05;;;;;;;;;;4963529;28;20490;-65
2024/03/22 12:33:25;;;;;;;23.75;5.45;;;;;;;;;;4964768;28;20093;-65
2024/03/22 12:35:53;;;;;;;21.80;5.15;;;;;;;;;;4945876;28;20549;-65
2024/03/22 12:38:19;;;;;;;19.33;5.10;;;;;;;;;;4962679;28;20051;-65
2024/03/22 12:40:45;;;;;;;18.30;6.63;;;;;;;;;;4960381;28;20042;-65
2024/03/22 12:43:11;;;;;;;22.67;6.30;;;;;;;;;;4945740;28;20044;-65
2024/03/22 12:45:38;;;;;;;22.35;5.70;;;;;;;;;;4947755;28;20138;-65
2024/03/22 12:48:04;;;;;;;17.90;4.47;;;;;;;;;;4947045;28;20055;-65
2024/03/22 12:50:31;;;;;;;20.52;6.30;;;;;;;;;;4964423;28;20059;-65
2024/03/22 12:52:57;;;;;;;25.30;5.53;;;;;;;;;;4930162;28;20486;-65
2024/03/22 12:55:23;;;;;;;24.30;5.88;;;;;;;;;;4957854;28;20047;-65
2024/03/22 12:57:49;;;;;;;22.38;5.10;;;;;;;;;;4960536;28;20101;-65
2024/03/22 13:00:18;;;;;;;26.88;5.25;;;;;;;;;;4962243;28;20393;-65
2024/03/22 13:02:46;;;;;;;14.82;3.55;;;;;;;;;;4943896;28;20050;-65
2024/03/22 13:05:12;;;;;;;28.70;4.85;;;;;;;;;;4950867;28;20095;-65
2024/03/22 13:07:38;;;;;;;23.30;4.95;;;;;;;;;;4963061;28;20521;-65
2024/03/22 13:10:05;;;;;;;18.38;4.68;;;;;;;;;;4965750;28;20474;-65
2024/03/22 13:12:33;;;;;;;18.65;4.75;;;;;;;;;;4967017;28;20047;-65
2024/03/22 13:15:00;;;;;;;26.48;5.07;;;;;;;;;;4967232;28;20075;-65
2024/03/22 13:17:26;;;;;;;20.85;5.05;;;;;;;;;;4949551;28;20043;-65
2024/03/22 13:19:52;;;;;;;18.02;5.07;;;;;;;;;;4965800;28;20039;-65
2024/03/22 13:22:18;;;;;;;28.67;5.57;;;;;;;;;;4947215;28;20038;-65
2024/03/22 13:24:45;;;;;;;25.85;5.70;;;;;;;;;;4950272;28;20058;-65
2024/03/22 13:27:12;;;;;;;24.83;5.28;;;;;;;;;;4951249;28;20154;-65
2024/03/22 13:29:39;;;;;;;28.58;6.10;;;;;;;;;;4948767;28;20051;-65
2024/03/22 13:32:07;;;;;;;19.95;5.05;;;;;;;;;;4948260;28;20076;-66
2024/03/22 13:34:35;;;;;;;19.23;4.03;;;;;;;;;;4965758;28;20122;-65
2024/03/22 13:37:01;;;;;;;27.75;4.63;;;;;;;;;;4964536;28;20680;-65
2024/03/22 13:39:29;;;;;;;24.83;4.60;;;;;;;;;;4947156;28;20685;-65
2024/03/22 13:41:56;;;;;;;23.30;4.95;;;;;;;;;;4964214;28;20537;-65
2024/03/22 13:44:22;;;;;;;20.88;4.95;;;;;;;;;;4949515;28;20061;-65
2024/03/22 13:46:50;;;;;;;23.23;5.28;;;;;;;;;;4963022;28;20049;-65
2024/03/22 13:49:17;;;;;;;29.25;5.75;;;;;;;;;;4963261;28;20145;-65
2024/03/22 13:51:44;;;;;;;27.40;5.30;;;;;;;;;;4962321;28;20822;-65
2024/03/22 13:54:10;;;;;;;22.00;5.22;;;;;;;;;;4950512;28;21334;-65
2024/03/22 13:56:37;;;;;;;27.70;6.20;;;;;;;;;;4964401;28;20454;-64
2024/03/22 13:59:05;;;;;;;26.75;5.13;;;;;;;;;;4948015;28;20348;-65
2024/03/22 14:01:32;;;;;;;27.35;5.15;;;;;;;;;;4955040;28;20055;-65
2024/03/22 14:03:59;;;;;;;22.88;4.90;;;;;;;;;;4932022;28;20440;-65
2024/03/22 14:06:25;;;;;;;29.92;5.28;;;;;;;;;;4962209;28;20058;-65
2024/03/22 14:08:54;;;;;;;30.70;6.50;;;;;;;;;;4965012;28;20049;-65
2024/03/22 14:11:20;;;;;;;23.48;4.05;;;;;;;;;;4936680;28;20050;-65
2024/03/22 14:13:46;;;;;;;24.65;4.50;;;;;;;;;;4962564;28;20083;-65